createdAt,value
2022-10-01T00:05:00.326Z,100418.66
2022-10-01T00:10:02.050Z,100421.31
2022-10-01T00:15:13.559Z,100406.25
2022-10-01T00:20:18.155Z,100405.63
2022-10-01T00:25:25.405Z,100405.81
2022-10-01T00:30:31.914Z,100393.44
2022-10-01T00:35:37.974Z,100398.00
2022-10-01T00:40:42.329Z,100376.72
2022-10-01T00:45:49.331Z,100370.34
2022-10-01T00:50:53.809Z,100375.09
2022-10-01T00:56:02.912Z,100372.19
2022-10-01T01:01:04.692Z,100354.81
2022-10-01T01:06:18.349Z,100348.59
2022-10-01T01:11:58.542Z,100333.31
2022-10-01T01:17:11.406Z,100330.00
2022-10-01T01:22:16.510Z,100324.63
2022-10-01T01:27:28.725Z,100312.25
2022-10-01T01:32:42.834Z,100305.88
2022-10-01T01:37:51.084Z,100292.66
2022-10-01T01:42:57.547Z,100289.97
2022-10-01T01:48:02.209Z,100273.28
2022-10-01T01:53:09.330Z,100259.28
2022-10-01T01:58:11.243Z,100241.97
2022-10-01T02:03:15.209Z,100223.81
2022-10-01T02:08:26.501Z,100212.06
2022-10-01T02:13:48.236Z,100196.59
2022-10-01T02:19:10.885Z,100193.72
2022-10-01T02:24:24.710Z,100171.44
2022-10-01T02:29:33.303Z,100150.63
2022-10-01T02:34:36.847Z,100153.72
2022-10-01T02:39:41.725Z,100141.13
2022-10-01T02:44:45.341Z,100129.81
2022-10-01T02:49:49.962Z,100117.03
2022-10-01T02:54:57.184Z,100116.81
2022-10-01T03:00:09.467Z,100111.88
2022-10-01T03:05:14.710Z,100113.09
2022-10-01T03:10:19.872Z,100094.78
2022-10-01T03:15:26.282Z,100071.06
2022-10-01T03:20:27.961Z,100050.28
2022-10-01T03:25:29.624Z,100038.97
2022-10-01T03:30:33.920Z,100034.03
2022-10-01T03:35:37.961Z,100011.38
2022-10-01T03:40:42.123Z,99995.72
2022-10-01T03:45:44.482Z,100007.03
2022-10-01T03:50:58.837Z,99995.69
2022-10-01T03:56:05.030Z,99995.31
2022-10-01T04:01:06.775Z,99979.44
2022-10-01T04:06:08.503Z,99968.56
2022-10-01T04:11:10.465Z,99966.25
2022-10-01T04:16:15.798Z,100009.28
2022-10-01T04:21:20.550Z,99984.75
2022-10-01T04:26:25.968Z,99992.97
2022-10-01T04:31:35.040Z,99983.69
2022-10-01T04:36:39.801Z,99962.72
2022-10-01T04:41:43.772Z,99952.63
2022-10-01T04:46:50.191Z,99932.47
2022-10-01T04:51:52.005Z,99926.09
2022-10-01T04:56:58.328Z,99917.44
2022-10-01T05:02:00.105Z,99905.94
2022-10-01T05:07:01.924Z,99900.59
2022-10-01T05:12:08.098Z,99887.22
2022-10-01T05:17:09.921Z,99890.72
2022-10-01T05:22:13.855Z,99890.72
2022-10-01T05:27:20.086Z,99881.88
2022-10-01T05:32:22.962Z,99902.22
2022-10-01T05:37:24.711Z,99903.25
2022-10-01T05:42:34.743Z,99903.06
2022-10-01T05:47:42.459Z,99900.59
2022-10-01T05:53:08.996Z,99889.06
2022-10-01T05:58:16.821Z,99891.75
2022-10-01T06:03:18.670Z,99889.06
2022-10-01T06:08:28.722Z,99879.19
2022-10-01T06:13:30.842Z,99871.19
2022-10-01T06:18:34.607Z,99866.44
2022-10-01T06:23:36.491Z,99860.91
2022-10-01T06:28:41.316Z,99854.50
2022-10-01T06:33:52.391Z,99848.78
2022-10-01T06:39:04.592Z,99838.50
2022-10-01T06:44:06.383Z,99851.88
2022-10-01T06:49:08.193Z,99855.78
2022-10-01T06:54:10.702Z,99846.31
2022-10-01T06:59:12.364Z,99860.91
2022-10-01T07:04:18.862Z,99856.56
2022-10-01T07:09:26.717Z,99857.59
2022-10-01T07:14:32.715Z,99854.50
2022-10-01T07:19:34.426Z,99873.66
2022-10-01T07:24:46.126Z,99877.56
2022-10-01T07:29:59.097Z,99882.09
2022-10-01T07:35:05.895Z,99884.50
2022-10-01T07:40:10.452Z,99888.19
2022-10-01T07:45:16.973Z,99897.84
2022-10-01T07:50:23.298Z,99895.13
2022-10-01T07:55:28.598Z,99891.09
2022-10-01T08:00:34.387Z,99895.38
2022-10-01T08:05:46.465Z,99902.34
2022-10-01T08:10:50.972Z,99909.06
2022-10-01T08:15:55.588Z,99914.84
2022-10-01T08:21:02.185Z,99912.69
2022-10-01T08:26:08.695Z,99911.97
2022-10-01T08:31:10.831Z,99914.75
2022-10-01T08:36:13.163Z,99936.19
2022-10-01T08:41:34.992Z,99932.06
2022-10-01T08:46:39.504Z,99943.00
2022-10-01T08:51:42.455Z,99948.19
2022-10-01T08:56:46.583Z,99948.19
2022-10-01T09:01:49.253Z,99945.66
2022-10-01T09:07:01.940Z,99948.03
2022-10-01T09:12:31.759Z,99962.13
2022-10-01T09:17:53.057Z,99975.22
2022-10-01T09:23:20.859Z,99982.78
2022-10-01T09:28:27.858Z,99980.06
2022-10-01T09:33:38.227Z,99981.38
2022-10-01T09:38:46.030Z,99987.50
2022-10-01T09:43:50.253Z,99994.66
2022-10-01T09:49:00.371Z,99998.44
2022-10-01T09:54:05.104Z,100002.88
2022-10-01T09:59:10.981Z,100020.81
2022-10-01T10:04:15.556Z,100016.44
2022-10-01T10:09:26.347Z,100023.13
2022-10-01T10:14:39.127Z,100032.03
2022-10-01T10:19:49.089Z,100025.63
2022-10-01T10:24:55.210Z,100044.88
2022-10-01T10:30:05.878Z,100056.72
2022-10-01T10:35:17.545Z,100047.88
2022-10-01T10:40:29.063Z,100066.63
2022-10-01T10:45:37.476Z,100061.69
2022-10-01T10:50:46.019Z,100073.56
2022-10-01T10:56:01.164Z,100062.78
2022-10-01T11:01:12.168Z,100076.44
2022-10-01T11:06:19.474Z,100061.56
2022-10-01T11:11:46.307Z,100075.97
2022-10-01T11:16:53.961Z,100093.16
2022-10-01T11:21:58.722Z,100128.69
2022-10-01T11:27:11.173Z,100135.16
2022-10-01T11:32:50.390Z,100146.47
2022-10-01T11:38:32.230Z,100154.06
2022-10-01T11:43:39.340Z,100155.41
2022-10-01T11:48:41.825Z,100154.63
2022-10-01T11:53:50.039Z,100158.78
2022-10-01T11:59:01.223Z,100164.56
2022-10-01T12:04:17.707Z,100169.94
2022-10-01T12:09:37.524Z,100177.13
2022-10-01T12:14:49.451Z,100186.09
2022-10-01T12:19:58.276Z,100181.84
2022-10-01T12:25:05.156Z,100173.94
2022-10-01T12:30:20.727Z,100188.84
2022-10-01T12:35:47.394Z,100206.09
2022-10-01T12:40:53.278Z,100206.28
2022-10-01T12:46:19.704Z,100210.47
2022-10-01T12:51:33.160Z,100220.59
2022-10-01T12:56:47.987Z,100224.56
2022-10-01T13:01:56.116Z,100233.78
2022-10-01T13:07:16.197Z,100224.13
2022-10-01T13:12:43.562Z,100232.13
2022-10-01T13:17:51.619Z,100246.69
2022-10-01T13:23:09.895Z,100263.00
2022-10-01T13:28:14.926Z,100265.09
2022-10-01T13:33:23.282Z,100271.88
2022-10-01T13:38:30.305Z,100270.59
2022-10-01T13:43:37.519Z,100277.88
2022-10-01T13:48:46.757Z,100288.56
2022-10-01T13:54:00.569Z,100292.19
2022-10-01T13:59:22.017Z,100316.22
2022-10-01T14:04:38.025Z,100304.03
2022-10-01T14:09:48.767Z,100314.19
2022-10-01T14:15:15.895Z,100329.38
2022-10-01T14:20:24.942Z,100331.59
2022-10-01T14:25:54.370Z,100339.38
2022-10-01T14:31:00.255Z,100355.31
2022-10-01T14:36:28.571Z,100365.09
2022-10-01T14:41:35.134Z,100364.78
2022-10-01T14:46:38.410Z,100373.16
2022-10-01T14:51:57.176Z,100383.00
2022-10-01T14:56:59.261Z,100396.72
2022-10-01T15:02:15.239Z,100402.31
2022-10-01T15:07:18.021Z,100419.75
2022-10-01T15:12:21.900Z,100421.94
2022-10-01T15:17:27.099Z,100439.25
2022-10-01T15:22:33.144Z,100441.81
2022-10-01T15:27:37.759Z,100456.28
2022-10-01T15:32:40.540Z,100443.34
2022-10-01T15:37:50.276Z,100460.88
2022-10-01T15:43:24.767Z,100472.50
2022-10-01T15:48:49.623Z,100474.63
2022-10-01T15:54:20.421Z,100486.91
2022-10-01T15:59:24.416Z,100485.00
2022-10-01T16:04:27.111Z,100497.97
2022-10-01T16:09:29.748Z,100502.78
2022-10-01T16:14:44.097Z,100505.06
2022-10-01T16:19:48.189Z,100524.81
2022-10-01T16:25:25.488Z,100526.97
2022-10-01T16:30:32.647Z,100532.31
2022-10-01T16:35:40.712Z,100550.72
2022-10-01T16:40:44.151Z,100558.03
2022-10-01T16:45:48.072Z,100562.94
2022-10-01T16:50:54.204Z,100580.06
2022-10-01T16:55:58.943Z,100590.94
2022-10-01T17:01:07.603Z,100594.28
2022-10-01T17:06:11.594Z,100609.69
2022-10-01T17:11:16.466Z,100615.75
2022-10-01T17:16:24.429Z,100624.69
2022-10-01T17:21:33.787Z,100620.19
2022-10-01T17:26:45.351Z,100643.00
2022-10-01T17:31:53.371Z,100654.31
2022-10-01T17:37:00.317Z,100652.31
2022-10-01T17:42:02.078Z,100667.25
2022-10-01T17:47:09.190Z,100673.47
2022-10-01T17:52:11.168Z,100684.41
2022-10-01T17:57:13.946Z,100689.78
2022-10-01T18:02:39.943Z,100700.13
2022-10-01T18:07:42.427Z,100705.25
2022-10-01T18:12:44.542Z,100709.19
2022-10-01T18:17:52.236Z,100715.97
2022-10-01T18:22:56.939Z,100737.25
2022-10-01T18:27:58.660Z,100737.25
2022-10-01T18:33:03.776Z,100750.06
2022-10-01T18:38:24.397Z,100758.50
2022-10-01T18:43:31.103Z,100766.34
2022-10-01T18:49:05.732Z,100761.78
2022-10-01T18:54:26.489Z,100770.03
2022-10-01T19:00:21.828Z,100780.16
2022-10-01T19:05:45.968Z,100784.47
2022-10-01T19:11:30.560Z,100778.47
2022-10-01T19:16:35.184Z,100791.88
2022-10-01T19:22:02.242Z,100795.56
2022-10-01T19:27:13.617Z,100794.06
2022-10-01T19:32:27.116Z,100814.50
2022-10-01T19:37:34.028Z,100808.88
2022-10-01T19:42:42.792Z,100829.28
2022-10-01T19:47:50.822Z,100840.63
2022-10-01T19:52:54.526Z,100836.03
2022-10-01T19:57:58.691Z,100843.81
2022-10-01T20:03:11.637Z,100848.75
2022-10-01T20:08:24.943Z,100855.94
2022-10-01T20:13:50.958Z,100863.72
2022-10-01T20:19:08.870Z,100867.81
2022-10-01T20:24:22.014Z,100876.44
2022-10-01T20:29:26.247Z,100879.50
2022-10-01T20:34:59.334Z,100881.38
2022-10-01T20:40:25.242Z,100895.22
2022-10-01T20:45:35.443Z,100900.22
2022-10-01T20:50:46.777Z,100919.06
2022-10-01T20:55:54.599Z,100913.47
2022-10-01T21:01:07.012Z,100930.59
2022-10-01T21:06:15.599Z,100920.25
2022-10-01T21:11:21.351Z,100936.09
2022-10-01T21:16:37.932Z,100939.13
2022-10-01T21:22:17.124Z,100937.63
2022-10-01T21:27:47.643Z,100936.47
2022-10-01T21:32:53.301Z,100945.47
2022-10-01T21:37:57.529Z,100956.38
2022-10-01T21:43:14.876Z,100953.03
2022-10-01T21:48:37.254Z,100965.41
2022-10-01T21:53:43.753Z,100969.78
2022-10-01T21:58:51.629Z,100973.66
2022-10-01T22:04:25.805Z,100970.72
2022-10-01T22:09:40.363Z,100971.47
2022-10-01T22:14:47.717Z,100976.00
2022-10-01T22:19:54.097Z,100984.59
2022-10-01T22:25:03.012Z,100988.69
2022-10-01T22:30:19.889Z,100983.88
2022-10-01T22:35:38.948Z,100978.25
2022-10-01T22:41:10.940Z,100987.88
2022-10-01T22:46:31.427Z,100998.69
2022-10-01T22:51:54.674Z,100992.03
2022-10-01T22:57:03.248Z,100994.44
2022-10-01T23:02:25.762Z,101001.19
2022-10-01T23:07:41.374Z,100991.03
2022-10-01T23:12:58.205Z,100990.53
2022-10-01T23:18:15.083Z,101014.00
2022-10-01T23:23:23.683Z,101016.34
2022-10-01T23:29:27.329Z,101039.34
2022-10-01T23:34:59.420Z,101040.16
2022-10-01T23:40:07.761Z,101022.28
2022-10-01T23:45:11.918Z,101023.91
2022-10-01T23:50:31.880Z,101021.97
2022-10-01T23:56:03.593Z,101033.25
